Map

Track Data

SID SEASON NUMBER BASIN SUBBASIN NAME ISO_TIME NATURE LAT LON WMO_WIND WMO_PRES WMO_AGENCY TRACK_TYPE DIST2LAND LANDFALL IFLAG USA_AGENCY USA_ATCF_ID USA_LAT USA_LON USA_RECORD USA_STATUS USA_WIND USA_PRES USA_SSHS USA_R34_NE USA_R34_SE USA_R34_SW USA_R34_NW USA_R50_NE USA_R50_SE USA_R50_SW USA_R50_NW USA_R64_NE USA_R64_SE USA_R64_SW USA_R64_NW USA_POCI USA_ROCI USA_RMW USA_EYE TOKYO_LAT TOKYO_LON TOKYO_GRADE TOKYO_WIND TOKYO_PRES TOKYO_R50_DIR TOKYO_R50_LONG TOKYO_R50_SHORT TOKYO_R30_DIR TOKYO_R30_LONG TOKYO_R30_SHORT TOKYO_LAND CMA_LAT CMA_LON CMA_CAT CMA_WIND CMA_PRES HKO_LAT HKO_LON HKO_CAT HKO_WIND HKO_PRES NEWDELHI_LAT NEWDELHI_LON NEWDELHI_GRADE NEWDELHI_WIND NEWDELHI_PRES NEWDELHI_CI NEWDELHI_DP NEWDELHI_POCI REUNION_LAT REUNION_LON REUNION_TYPE REUNION_WIND REUNION_PRES REUNION_TNUM REUNION_CI REUNION_RMW REUNION_R34_NE REUNION_R34_SE REUNION_R34_SW REUNION_R34_NW REUNION_R50_NE REUNION_R50_SE REUNION_R50_SW REUNION_R50_NW REUNION_R64_NE REUNION_R64_SE REUNION_R64_SW REUNION_R64_NW BOM_LAT BOM_LON BOM_TYPE BOM_WIND BOM_PRES BOM_TNUM BOM_CI BOM_RMW BOM_R34_NE BOM_R34_SE BOM_R34_SW BOM_R34_NW BOM_R50_NE BOM_R50_SE BOM_R50_SW BOM_R50_NW BOM_R64_NE BOM_R64_SE BOM_R64_SW BOM_R64_NW BOM_ROCI BOM_POCI BOM_EYE BOM_POS_METHOD BOM_PRES_METHOD NADI_LAT NADI_LON NADI_CAT NADI_WIND NADI_PRES WELLINGTON_LAT WELLINGTON_LON WELLINGTON_WIND WELLINGTON_PRES DS824_LAT DS824_LON DS824_STAGE DS824_WIND DS824_PRES TD9636_LAT TD9636_LON TD9636_STAGE TD9636_WIND TD9636_PRES TD9635_LAT TD9635_LON TD9635_WIND TD9635_PRES TD9635_ROCI NEUMANN_LAT NEUMANN_LON NEUMANN_CLASS NEUMANN_WIND NEUMANN_PRES MLC_LAT MLC_LON MLC_CLASS MLC_WIND MLC_PRES USA_GUST BOM_GUST BOM_GUST_PER REUNION_GUST REUNION_GUST_PER USA_SEAHGT USA_SEARAD_NE USA_SEARAD_SE USA_SEARAD_SW USA_SEARAD_NW STORM_SPEED STORM_DIR
2002314N12083 2002 88 NI BB NOT_NAMED 2002-11-09 18:00:00 TS 11.7000 82.5000 main 265 262 O_____________ jtwc_io IO032002 11.7000 82.5000 TD 25 1002 -1 1008 120 15 2 0
2002314N12083 2002 88 NI BB NOT_NAMED 2002-11-09 21:00:00 TS 11.8050 82.5025 main 262 259 P_____________ IO032002 11.8050 82.5025 TD 25 1002 -1 1008 120 15 2 8
2002314N12083 2002 88 NI BB NOT_NAMED 2002-11-10 00:00:00 TS 11.9000 82.5000 main 259 256 O_____________ jtwc_io IO032002 11.9000 82.5000 TD 25 1002 -1 1008 120 15 2 0
2002314N12083 2002 88 NI BB NOT_NAMED 2002-11-10 03:00:00 TS 11.9880 82.4940 25 1004 newdelhi main 256 254 P___O_________ IO032002 11.9850 82.4925 TD 25 1002 -1 1008 120 15 12.0000 82.5000 D 25 1004 1.50000 4 2 7
2002314N12083 2002 88 NI BB NOT_NAMED 2002-11-10 06:00:00 TS 12.0667 82.5000 25 1004 newdelhi main 254 254 O___O_________ jtwc_io IO032002 12.1000 82.5000 TD 25 1002 -1 1008 120 15 12.0000 82.5000 D 25 1004 1.50000 4 2 8
2002314N12083 2002 88 NI BB NOT_NAMED 2002-11-10 09:00:00 TS 12.1397 82.5157 main 254 252 P___P_________ IO032002 12.2700 82.5275 TD 25 1002 -1 1008 120 15 11.9659 82.5000 D 27 1003 5 2 15
2002314N12083 2002 88 NI BB NOT_NAMED 2002-11-10 12:00:00 TS 12.2500 82.5500 30 1002 newdelhi main 261 260 O___O_________ jtwc_io IO032002 12.5000 82.6000 TD 25 1002 -1 1008 120 15 12.0000 82.5000 DD 30 1002 2.00000 6 4 15
2002314N12083 2002 88 NI BB NOT_NAMED 2002-11-10 15:00:00 TS 12.4837 82.6063 main 260 260 P___P_________ IO032002 12.7925 82.7125 TD 25 1002 -1 1008 120 15 12.1750 82.5000 DD 30 1003 6 6 15
2002314N12083 2002 88 NI BB NOT_NAMED 2002-11-10 18:00:00 TS 12.8000 82.7000 30 1004 newdelhi main 266 260 O___O_________ jtwc_io IO032002 13.1000 82.9000 TD 25 1002 -1 1008 120 15 12.5000 82.5000 DD 30 1004 2.00000 6 7 14
2002314N12083 2002 88 NI BB NOT_NAMED 2002-11-10 21:00:00 TS 13.1541 82.7804 main 270 270 P___P_________ IO032002 13.3425 83.1626 TD 27 1001 -1 1008 120 15 12.9658 82.3982 DD 30 1004 6 8 21
2002314N12083 2002 88 NI BB NOT_NAMED 2002-11-11 00:00:00 TS 13.5500 83.0000 30 1004 newdelhi main 291 291 O___O_________ jtwc_io IO032002 13.6000 83.5000 TD 30 1000 -1 1008 120 15 13.5000 82.5000 DD 30 1004 2.00000 6 10 39
2002314N12083 2002 88 NI BB NOT_NAMED 2002-11-11 03:00:00 TS 13.9563 83.4463 30 1004 newdelhi main 312 300 P___O_________ IO032002 13.9125 83.8926 TD 30 1000 -1 1008 120 15 14.0000 83.0000 DD 30 1004 2.00000 6 12 46
2002314N12083 2002 88 NI BB NOT_NAMED 2002-11-11 06:00:00 TS 14.4000 83.9000 30 1004 newdelhi main 300 286 O___O_________ jtwc_io IO032002 14.3000 84.3000 TD 30 1000 -1 1008 120 15 14.5000 83.5000 DD 30 1004 2.00000 6 13 43
2002314N12083 2002 88 NI BB NOT_NAMED 2002-11-11 09:00:00 TS 14.8812 84.3326 30 998 newdelhi main 286 275 P___O_________ IO032002 14.7625 84.6651 TD 32 998 -1 1006 125 15 15.0000 84.0000 DD 30 998 2.00000 6 15 33
2002314N12083 2002 88 NI BB NOT_NAMED 2002-11-11 12:00:00 TS 15.6500 84.7500 45 996 newdelhi main 272 248 O___O_________ jtwc_io IO032002 15.3000 85.0000 TS 35 997 0 1005 130 15 16.0000 84.5000 CS 45 996 2.50000 10 11 16
2002314N12083 2002 88 NI BB NOT_NAMED 2002-11-11 15:00:00 TS 15.9387 84.6501 45 996 newdelhi main 248 231 P___O_________ IO032002 15.8774 85.3003 TS 35 997 0 1005 130 20 16.0000 84.0000 CS 45 996 3.00000 10 6 4
2002314N12083 2002 88 NI BB NOT_NAMED 2002-11-11 18:00:00 TS 16.2500 84.8000 45 996 newdelhi main 223 198 O___O_________ jtwc_io IO032002 16.5000 85.6000 TS 35 997 0 1005 130 25 16.0000 84.0000 CS 45 996 3.00000 10 9 20
2002314N12083 2002 88 NI BB NOT_NAMED 2002-11-11 21:00:00 TS 16.7575 84.9571 45 996 newdelhi main 193 173 P___O_________ IO032002 17.0149 85.9142 TS 35 997 0 1005 130 25 16.5000 84.0000 CS 45 996 3.00000 10 27 35
2002314N12083 2002 88 NI BB NOT_NAMED 2002-11-12 00:00:00 TS 18.4000 86.4000 45 996 newdelhi main 168 69 O___O_________ jtwc_io IO032002 17.8000 86.3000 TS 35 997 0 1005 130 25 19.0000 86.5000 CS 45 996 3.50000 10 34 33
2002314N12083 2002 88 NI BB NOT_NAMED 2002-11-12 03:00:00 TS 19.6086 86.8839 45 996 newdelhi main 68 30 P___O_________ IO032002 19.2172 86.7679 TS 45 990 0 1005 130 20 20.0000 87.0000 CS 45 996 3.00000 10 27 22
2002314N12083 2002 88 NI BB NOT_NAMED 2002-11-12 06:00:00 TS 20.9143 87.4571 55 990 newdelhi main 53 0 O___O_________ jtwc_io IO032002 20.8000 87.4000 TS 55 984 0 60 60 60 60 1005 130 15 21.0000 87.5000 SCS 55 990 3.50000 15 31 27
2002314N12083 2002 88 NI BB NOT_NAMED 2002-11-12 09:00:00 TS 22.3415 88.3949 newdelhi main 0 0 P___O_________ IO032002 22.1036 88.2372 TS 42 992 0 1005 115 20 22.5000 88.5000 CS 0.00000 8 35 37
2002314N12083 2002 88 NI BB NOT_NAMED 2002-11-12 12:00:00 TS 23.7333 89.7333 newdelhi main 0 0 O___O_________ jtwc_io IO032002 23.2000 89.2000 TD 30 1000 -1 1005 100 25 24.0000 90.0000 DD 0.00000 6 39 47
2002314N12083 2002 88 NI BB NOT_NAMED 2002-11-12 15:00:00 NR 25.0000 91.5000 newdelhi main 0 ____O_________ IO032002 TD -1 25.0000 91.5000 D 0.00000 6 41 52

About IBTrACS Database

This database is a web-friendly format of International Best Track Archive for Climate Stewardship (IBTrACS), a global best track data archive curated by NOAA dating back to 1842.

Updated: 2021-12-08